sensor_id;sensor_type;location;lat;lon;timestamp;temperature;humidity
26909;DHT22;14477;51.038;4.588;2022-07-23T00:00:32;19.30;90.90
26909;DHT22;14477;51.038;4.588;2022-07-23T00:02:59;19.30;91.00
26909;DHT22;14477;51.038;4.588;2022-07-23T00:05:25;19.30;91.00
26909;DHT22;14477;51.038;4.588;2022-07-23T00:07:50;19.20;91.10
26909;DHT22;14477;51.038;4.588;2022-07-23T00:10:16;19.10;91.10
26909;DHT22;14477;51.038;4.588;2022-07-23T00:12:42;19.10;91.10
26909;DHT22;14477;51.038;4.588;2022-07-23T00:15:08;19.10;91.20
26909;DHT22;14477;51.038;4.588;2022-07-23T00:17:34;19.10;91.30
26909;DHT22;14477;51.038;4.588;2022-07-23T00:19:59;19.00;91.30
26909;DHT22;14477;51.038;4.588;2022-07-23T00:22:25;19.00;91.30
26909;DHT22;14477;51.038;4.588;2022-07-23T00:24:51;19.00;91.30
26909;DHT22;14477;51.038;4.588;2022-07-23T00:27:17;18.90;91.30
26909;DHT22;14477;51.038;4.588;2022-07-23T00:29:42;18.90;91.40
26909;DHT22;14477;51.038;4.588;2022-07-23T00:32:08;18.90;91.40
26909;DHT22;14477;51.038;4.588;2022-07-23T00:34:33;18.90;91.40
26909;DHT22;14477;51.038;4.588;2022-07-23T00:36:59;18.80;91.40
26909;DHT22;14477;51.038;4.588;2022-07-23T00:39:25;18.80;91.40
26909;DHT22;14477;51.038;4.588;2022-07-23T00:41:51;18.80;91.50
26909;DHT22;14477;51.038;4.588;2022-07-23T00:44:21;18.70;91.50
26909;DHT22;14477;51.038;4.588;2022-07-23T00:46:52;18.70;91.50
26909;DHT22;14477;51.038;4.588;2022-07-23T00:49:29;18.70;91.50
26909;DHT22;14477;51.038;4.588;2022-07-23T00:51:56;18.70;91.50
26909;DHT22;14477;51.038;4.588;2022-07-23T00:54:24;18.60;91.60
26909;DHT22;14477;51.038;4.588;2022-07-23T00:56:50;18.60;91.60
26909;DHT22;14477;51.038;4.588;2022-07-23T00:59:16;18.60;91.70
26909;DHT22;14477;51.038;4.588;2022-07-23T01:01:42;18.50;91.70
26909;DHT22;14477;51.038;4.588;2022-07-23T01:04:09;18.50;91.70
26909;DHT22;14477;51.038;4.588;2022-07-23T01:06:37;18.50;91.70
26909;DHT22;14477;51.038;4.588;2022-07-23T01:09:05;18.40;91.70
26909;DHT22;14477;51.038;4.588;2022-07-23T01:11:35;18.40;91.70
26909;DHT22;14477;51.038;4.588;2022-07-23T01:14:13;18.40;91.70
26909;DHT22;14477;51.038;4.588;2022-07-23T01:16:39;18.40;91.70
26909;DHT22;14477;51.038;4.588;2022-07-23T01:19:05;18.30;91.80
26909;DHT22;14477;51.038;4.588;2022-07-23T01:21:36;18.30;91.80
26909;DHT22;14477;51.038;4.588;2022-07-23T01:24:02;18.20;91.90
26909;DHT22;14477;51.038;4.588;2022-07-23T01:26:29;18.20;91.90
26909;DHT22;14477;51.038;4.588;2022-07-23T01:28:55;18.20;91.90
26909;DHT22;14477;51.038;4.588;2022-07-23T01:31:20;18.20;92.00
26909;DHT22;14477;51.038;4.588;2022-07-23T01:33:46;18.10;92.00
26909;DHT22;14477;51.038;4.588;2022-07-23T01:36:11;18.10;92.00
26909;DHT22;14477;51.038;4.588;2022-07-23T01:38:37;18.10;92.10
26909;DHT22;14477;51.038;4.588;2022-07-23T01:41:03;18.10;92.10
26909;DHT22;14477;51.038;4.588;2022-07-23T01:43:28;18.00;92.10
26909;DHT22;14477;51.038;4.588;2022-07-23T01:45:54;18.00;92.20
26909;DHT22;14477;51.038;4.588;2022-07-23T01:48:20;17.90;92.20
26909;DHT22;14477;51.038;4.588;2022-07-23T01:50:47;17.90;92.20
26909;DHT22;14477;51.038;4.588;2022-07-23T01:53:13;17.90;92.20
26909;DHT22;14477;51.038;4.588;2022-07-23T01:55:39;17.90;92.30
26909;DHT22;14477;51.038;4.588;2022-07-23T01:58:05;17.80;92.30
26909;DHT22;14477;51.038;4.588;2022-07-23T02:00:31;17.80;92.40
26909;DHT22;14477;51.038;4.588;2022-07-23T02:02:56;17.80;92.50
26909;DHT22;14477;51.038;4.588;2022-07-23T02:05:24;17.80;92.50
26909;DHT22;14477;51.038;4.588;2022-07-23T02:07:50;17.80;92.50
26909;DHT22;14477;51.038;4.588;2022-07-23T02:10:16;17.80;92.60
26909;DHT22;14477;51.038;4.588;2022-07-23T02:12:41;17.70;92.50
26909;DHT22;14477;51.038;4.588;2022-07-23T02:15:07;17.70;92.60
26909;DHT22;14477;51.038;4.588;2022-07-23T02:17:33;17.70;92.60
26909;DHT22;14477;51.038;4.588;2022-07-23T02:19:58;17.70;92.60
26909;DHT22;14477;51.038;4.588;2022-07-23T02:22:24;17.70;92.60
26909;DHT22;14477;51.038;4.588;2022-07-23T02:24:50;17.70;92.60
26909;DHT22;14477;51.038;4.588;2022-07-23T02:27:15;17.60;92.60
26909;DHT22;14477;51.038;4.588;2022-07-23T02:29:41;17.60;92.60
26909;DHT22;14477;51.038;4.588;2022-07-23T02:32:06;17.60;92.60
26909;DHT22;14477;51.038;4.588;2022-07-23T02:34:32;17.60;92.70
26909;DHT22;14477;51.038;4.588;2022-07-23T02:36:58;17.60;92.70
26909;DHT22;14477;51.038;4.588;2022-07-23T02:39:23;17.50;92.70
26909;DHT22;14477;51.038;4.588;2022-07-23T02:41:49;17.50;92.70
26909;DHT22;14477;51.038;4.588;2022-07-23T02:44:15;17.50;92.80
26909;DHT22;14477;51.038;4.588;2022-07-23T02:46:40;17.50;92.80
26909;DHT22;14477;51.038;4.588;2022-07-23T02:49:06;17.40;92.70
26909;DHT22;14477;51.038;4.588;2022-07-23T02:51:31;17.40;92.80
26909;DHT22;14477;51.038;4.588;2022-07-23T02:53:57;17.40;92.80
26909;DHT22;14477;51.038;4.588;2022-07-23T02:56:23;17.30;92.70
26909;DHT22;14477;51.038;4.588;2022-07-23T02:58:48;17.30;92.80
26909;DHT22;14477;51.038;4.588;2022-07-23T03:01:14;17.30;92.80
26909;DHT22;14477;51.038;4.588;2022-07-23T03:03:39;17.20;92.80
26909;DHT22;14477;51.038;4.588;2022-07-23T03:06:05;17.20;92.80
26909;DHT22;14477;51.038;4.588;2022-07-23T03:08:31;17.10;92.80
26909;DHT22;14477;51.038;4.588;2022-07-23T03:10:57;17.10;92.80
26909;DHT22;14477;51.038;4.588;2022-07-23T03:13:22;17.10;92.90
26909;DHT22;14477;51.038;4.588;2022-07-23T03:15:48;17.10;93.00
26909;DHT22;14477;51.038;4.588;2022-07-23T03:18:14;17.10;93.00
26909;DHT22;14477;51.038;4.588;2022-07-23T03:20:39;17.10;93.00
26909;DHT22;14477;51.038;4.588;2022-07-23T03:23:05;17.00;93.00
26909;DHT22;14477;51.038;4.588;2022-07-23T03:25:30;17.00;93.00
26909;DHT22;14477;51.038;4.588;2022-07-23T03:27:56;17.00;93.00
26909;DHT22;14477;51.038;4.588;2022-07-23T03:30:22;17.00;93.00
26909;DHT22;14477;51.038;4.588;2022-07-23T03:32:47;16.90;93.00
26909;DHT22;14477;51.038;4.588;2022-07-23T03:35:13;16.90;93.00
26909;DHT22;14477;51.038;4.588;2022-07-23T03:37:38;16.90;93.00
26909;DHT22;14477;51.038;4.588;2022-07-23T03:40:05;16.90;93.00
26909;DHT22;14477;51.038;4.588;2022-07-23T03:42:31;16.80;93.00
26909;DHT22;14477;51.038;4.588;2022-07-23T03:44:57;16.80;93.10
26909;DHT22;14477;51.038;4.588;2022-07-23T03:47:22;16.70;93.00
26909;DHT22;14477;51.038;4.588;2022-07-23T03:49:48;16.70;93.10
26909;DHT22;14477;51.038;4.588;2022-07-23T03:52:14;16.70;93.10
26909;DHT22;14477;51.038;4.588;2022-07-23T03:54:40;16.60;93.20
26909;DHT22;14477;51.038;4.588;2022-07-23T03:57:05;16.60;93.20
26909;DHT22;14477;51.038;4.588;2022-07-23T03:59:31;16.60;93.20
26909;DHT22;14477;51.038;4.588;2022-07-23T04:01:57;16.60;93.30
26909;DHT22;14477;51.038;4.588;2022-07-23T04:04:22;16.60;93.30
26909;DHT22;14477;51.038;4.588;2022-07-23T04:06:48;16.60;93.30
26909;DHT22;14477;51.038;4.588;2022-07-23T04:09:13;16.60;93.30
26909;DHT22;14477;51.038;4.588;2022-07-23T04:11:39;16.50;93.30
26909;DHT22;14477;51.038;4.588;2022-07-23T04:14:05;16.50;93.30
26909;DHT22;14477;51.038;4.588;2022-07-23T04:16:31;16.50;93.40
26909;DHT22;14477;51.038;4.588;2022-07-23T04:18:57;16.50;93.40
26909;DHT22;14477;51.038;4.588;2022-07-23T04:21:23;16.50;93.50
26909;DHT22;14477;51.038;4.588;2022-07-23T04:23:49;16.40;93.50
26909;DHT22;14477;51.038;4.588;2022-07-23T04:26:15;16.40;93.50
26909;DHT22;14477;51.038;4.588;2022-07-23T04:28:41;16.40;93.60
26909;DHT22;14477;51.038;4.588;2022-07-23T04:31:06;16.40;93.60
26909;DHT22;14477;51.038;4.588;2022-07-23T04:33:32;16.40;93.70
26909;DHT22;14477;51.038;4.588;2022-07-23T04:35:58;16.40;93.70
26909;DHT22;14477;51.038;4.588;2022-07-23T04:38:23;16.40;93.70
26909;DHT22;14477;51.038;4.588;2022-07-23T04:40:49;16.40;93.80
26909;DHT22;14477;51.038;4.588;2022-07-23T04:43:15;16.40;93.80
26909;DHT22;14477;51.038;4.588;2022-07-23T04:45:40;16.40;93.80
26909;DHT22;14477;51.038;4.588;2022-07-23T04:48:06;16.40;93.80
26909;DHT22;14477;51.038;4.588;2022-07-23T04:50:32;16.40;93.90
26909;DHT22;14477;51.038;4.588;2022-07-23T04:52:58;16.40;94.00
26909;DHT22;14477;51.038;4.588;2022-07-23T04:55:23;16.40;94.00
26909;DHT22;14477;51.038;4.588;2022-07-23T04:57:49;16.40;94.10
26909;DHT22;14477;51.038;4.588;2022-07-23T05:00:15;16.50;94.20
26909;DHT22;14477;51.038;4.588;2022-07-23T05:02:40;16.50;94.20
26909;DHT22;14477;51.038;4.588;2022-07-23T05:05:06;16.50;94.30
26909;DHT22;14477;51.038;4.588;2022-07-23T05:07:32;16.50;94.40
26909;DHT22;14477;51.038;4.588;2022-07-23T05:09:58;16.50;94.50
26909;DHT22;14477;51.038;4.588;2022-07-23T05:12:23;16.50;94.60
26909;DHT22;14477;51.038;4.588;2022-07-23T05:14:49;16.50;94.80
26909;DHT22;14477;51.038;4.588;2022-07-23T05:17:14;16.60;94.90
26909;DHT22;14477;51.038;4.588;2022-07-23T05:19:40;16.60;95.00
26909;DHT22;14477;51.038;4.588;2022-07-23T05:22:06;16.70;95.10
26909;DHT22;14477;51.038;4.588;2022-07-23T05:24:31;16.70;95.50
26909;DHT22;14477;51.038;4.588;2022-07-23T05:26:57;16.80;95.30
26909;DHT22;14477;51.038;4.588;2022-07-23T05:29:22;16.80;95.40
26909;DHT22;14477;51.038;4.588;2022-07-23T05:31:48;16.80;95.50
26909;DHT22;14477;51.038;4.588;2022-07-23T05:34:13;16.80;95.60
26909;DHT22;14477;51.038;4.588;2022-07-23T05:36:39;16.90;95.70
26909;DHT22;14477;51.038;4.588;2022-07-23T05:39:05;17.00;95.80
26909;DHT22;14477;51.038;4.588;2022-07-23T05:41:30;17.00;95.80
26909;DHT22;14477;51.038;4.588;2022-07-23T05:43:56;17.00;95.90
26909;DHT22;14477;51.038;4.588;2022-07-23T05:46:21;17.10;96.10
26909;DHT22;14477;51.038;4.588;2022-07-23T05:48:47;17.20;96.30
26909;DHT22;14477;51.038;4.588;2022-07-23T05:51:25;17.30;96.50
26909;DHT22;14477;51.038;4.588;2022-07-23T05:53:51;17.30;96.50
26909;DHT22;14477;51.038;4.588;2022-07-23T05:56:17;17.40;96.80
26909;DHT22;14477;51.038;4.588;2022-07-23T05:58:43;17.50;97.00
26909;DHT22;14477;51.038;4.588;2022-07-23T06:01:09;17.60;97.20
26909;DHT22;14477;51.038;4.588;2022-07-23T06:03:34;17.70;97.40
26909;DHT22;14477;51.038;4.588;2022-07-23T06:06:00;17.80;97.70
26909;DHT22;14477;51.038;4.588;2022-07-23T06:08:26;18.00;97.90
26909;DHT22;14477;51.038;4.588;2022-07-23T06:10:51;18.10;98.10
26909;DHT22;14477;51.038;4.588;2022-07-23T06:13:20;18.20;98.20
26909;DHT22;14477;51.038;4.588;2022-07-23T06:15:46;18.40;98.50
26909;DHT22;14477;51.038;4.588;2022-07-23T06:18:12;18.50;98.30
26909;DHT22;14477;51.038;4.588;2022-07-23T06:20:37;18.70;98.30
26909;DHT22;14477;51.038;4.588;2022-07-23T06:23:04;18.80;98.20
26909;DHT22;14477;51.038;4.588;2022-07-23T06:25:30;18.90;98.10
26909;DHT22;14477;51.038;4.588;2022-07-23T06:27:55;19.00;98.30
26909;DHT22;14477;51.038;4.588;2022-07-23T06:30:21;19.00;97.90
26909;DHT22;14477;51.038;4.588;2022-07-23T06:32:47;19.10;97.80
26909;DHT22;14477;51.038;4.588;2022-07-23T06:35:13;19.20;97.80
26909;DHT22;14477;51.038;4.588;2022-07-23T06:37:38;19.20;97.80
26909;DHT22;14477;51.038;4.588;2022-07-23T06:40:04;19.30;97.80
26909;DHT22;14477;51.038;4.588;2022-07-23T06:42:30;19.40;97.80
26909;DHT22;14477;51.038;4.588;2022-07-23T06:44:56;19.50;97.70
26909;DHT22;14477;51.038;4.588;2022-07-23T06:47:22;19.60;97.60
26909;DHT22;14477;51.038;4.588;2022-07-23T06:49:47;19.60;97.40
26909;DHT22;14477;51.038;4.588;2022-07-23T06:52:13;19.70;97.20
26909;DHT22;14477;51.038;4.588;2022-07-23T06:54:38;19.60;97.10
26909;DHT22;14477;51.038;4.588;2022-07-23T06:57:04;19.70;97.00
26909;DHT22;14477;51.038;4.588;2022-07-23T06:59:30;19.70;97.00
26909;DHT22;14477;51.038;4.588;2022-07-23T07:01:56;19.70;97.00
26909;DHT22;14477;51.038;4.588;2022-07-23T07:04:22;19.80;97.10
26909;DHT22;14477;51.038;4.588;2022-07-23T07:06:48;19.80;97.10
26909;DHT22;14477;51.038;4.588;2022-07-23T07:09:14;19.90;97.20
26909;DHT22;14477;51.038;4.588;2022-07-23T07:11:39;19.90;97.20
26909;DHT22;14477;51.038;4.588;2022-07-23T07:14:05;20.00;97.20
26909;DHT22;14477;51.038;4.588;2022-07-23T07:16:31;20.10;97.20
26909;DHT22;14477;51.038;4.588;2022-07-23T07:18:57;20.10;97.10
26909;DHT22;14477;51.038;4.588;2022-07-23T07:21:22;20.20;97.10
26909;DHT22;14477;51.038;4.588;2022-07-23T07:23:48;20.30;97.20
26909;DHT22;14477;51.038;4.588;2022-07-23T07:26:13;20.30;97.30
26909;DHT22;14477;51.038;4.588;2022-07-23T07:28:39;20.40;97.40
26909;DHT22;14477;51.038;4.588;2022-07-23T07:31:05;20.50;97.40
26909;DHT22;14477;51.038;4.588;2022-07-23T07:33:30;20.60;97.40
26909;DHT22;14477;51.038;4.588;2022-07-23T07:35:56;20.70;97.40
26909;DHT22;14477;51.038;4.588;2022-07-23T07:38:22;20.70;97.50
26909;DHT22;14477;51.038;4.588;2022-07-23T07:40:47;20.90;97.50
26909;DHT22;14477;51.038;4.588;2022-07-23T07:43:13;21.00;97.50
26909;DHT22;14477;51.038;4.588;2022-07-23T07:45:39;21.10;97.70
26909;DHT22;14477;51.038;4.588;2022-07-23T07:48:05;21.20;98.20
26909;DHT22;14477;51.038;4.588;2022-07-23T07:50:30;21.40;99.10
26909;DHT22;14477;51.038;4.588;2022-07-23T07:52:56;21.60;99.90
26909;DHT22;14477;51.038;4.588;2022-07-23T07:55:22;22.00;99.90
26909;DHT22;14477;51.038;4.588;2022-07-23T07:57:47;22.30;99.90
26909;DHT22;14477;51.038;4.588;2022-07-23T08:00:13;22.60;99.90
26909;DHT22;14477;51.038;4.588;2022-07-23T08:02:51;23.00;99.90
26909;DHT22;14477;51.038;4.588;2022-07-23T08:05:25;23.40;98.10
26909;DHT22;14477;51.038;4.588;2022-07-23T08:07:52;23.70;98.00
26909;DHT22;14477;51.038;4.588;2022-07-23T08:10:18;24.00;99.20
26909;DHT22;14477;51.038;4.588;2022-07-23T08:12:49;24.30;99.20
26909;DHT22;14477;51.038;4.588;2022-07-23T08:15:16;24.60;98.10
26909;DHT22;14477;51.038;4.588;2022-07-23T08:17:44;25.00;99.00
26909;DHT22;14477;51.038;4.588;2022-07-23T08:20:11;25.30;99.00
26909;DHT22;14477;51.038;4.588;2022-07-23T08:22:58;25.70;98.80
26909;DHT22;14477;51.038;4.588;2022-07-23T08:25:27;26.20;95.90
26909;DHT22;14477;51.038;4.588;2022-07-23T08:27:53;26.60;98.10
26909;DHT22;14477;51.038;4.588;2022-07-23T08:30:19;27.10;98.30
26909;DHT22;14477;51.038;4.588;2022-07-23T08:35:15;28.00;95.80
26909;DHT22;14477;51.038;4.588;2022-07-23T08:37:41;28.50;96.70
26909;DHT22;14477;51.038;4.588;2022-07-23T08:40:07;28.90;96.20
26909;DHT22;14477;51.038;4.588;2022-07-23T08:42:33;29.30;95.90
26909;DHT22;14477;51.038;4.588;2022-07-23T08:45:02;29.70;95.10
26909;DHT22;14477;51.038;4.588;2022-07-23T08:47:29;30.10;94.00
26909;DHT22;14477;51.038;4.588;2022-07-23T08:49:56;30.40;93.30
26909;DHT22;14477;51.038;4.588;2022-07-23T08:52:24;30.70;92.50
26909;DHT22;14477;51.038;4.588;2022-07-23T08:54:50;31.00;92.30
26909;DHT22;14477;51.038;4.588;2022-07-23T08:57:16;31.20;92.20
26909;DHT22;14477;51.038;4.588;2022-07-23T08:59:42;31.40;92.10
26909;DHT22;14477;51.038;4.588;2022-07-23T09:02:08;31.70;91.90
26909;DHT22;14477;51.038;4.588;2022-07-23T09:04:34;31.90;91.80
26909;DHT22;14477;51.038;4.588;2022-07-23T09:07:01;32.10;91.60
26909;DHT22;14477;51.038;4.588;2022-07-23T09:09:27;32.30;91.00
26909;DHT22;14477;51.038;4.588;2022-07-23T09:12:04;32.60;91.50
26909;DHT22;14477;51.038;4.588;2022-07-23T09:17:16;33.10;86.80
26909;DHT22;14477;51.038;4.588;2022-07-23T09:19:43;33.30;87.50
26909;DHT22;14477;51.038;4.588;2022-07-23T09:22:27;33.50;90.20
26909;DHT22;14477;51.038;4.588;2022-07-23T09:25:09;33.80;82.60
26909;DHT22;14477;51.038;4.588;2022-07-23T09:30:12;34.20;82.80
26909;DHT22;14477;51.038;4.588;2022-07-23T09:32:39;34.50;89.20
26909;DHT22;14477;51.038;4.588;2022-07-23T09:35:05;34.70;87.20
26909;DHT22;14477;51.038;4.588;2022-07-23T09:37:31;34.70;86.30
26909;DHT22;14477;51.038;4.588;2022-07-23T09:40:12;34.80;85.60
26909;DHT22;14477;51.038;4.588;2022-07-23T09:42:41;34.90;80.00
26909;DHT22;14477;51.038;4.588;2022-07-23T09:45:20;35.00;85.50
26909;DHT22;14477;51.038;4.588;2022-07-23T09:47:46;35.10;85.90
26909;DHT22;14477;51.038;4.588;2022-07-23T09:50:12;35.20;85.00
26909;DHT22;14477;51.038;4.588;2022-07-23T09:52:44;35.30;83.70
26909;DHT22;14477;51.038;4.588;2022-07-23T09:55:11;35.30;79.80
26909;DHT22;14477;51.038;4.588;2022-07-23T09:57:43;35.40;83.20
26909;DHT22;14477;51.038;4.588;2022-07-23T10:00:11;35.40;80.50
26909;DHT22;14477;51.038;4.588;2022-07-23T10:02:37;35.40;82.70
26909;DHT22;14477;51.038;4.588;2022-07-23T10:05:05;35.50;82.50
26909;DHT22;14477;51.038;4.588;2022-07-23T10:07:39;35.50;81.70
26909;DHT22;14477;51.038;4.588;2022-07-23T10:10:05;35.60;77.70
26909;DHT22;14477;51.038;4.588;2022-07-23T10:12:31;35.70;82.10
26909;DHT22;14477;51.038;4.588;2022-07-23T10:15:09;35.80;82.60
26909;DHT22;14477;51.038;4.588;2022-07-23T10:17:35;35.90;82.40
26909;DHT22;14477;51.038;4.588;2022-07-23T10:20:02;36.10;81.40
26909;DHT22;14477;51.038;4.588;2022-07-23T10:22:31;36.20;80.90
26909;DHT22;14477;51.038;4.588;2022-07-23T10:36:19;36.70;78.10
26909;DHT22;14477;51.038;4.588;2022-07-23T10:41:15;36.90;76.80
26909;DHT22;14477;51.038;4.588;2022-07-23T10:44:19;37.00;75.30
26909;DHT22;14477;51.038;4.588;2022-07-23T10:46:59;37.10;66.40
26909;DHT22;14477;51.038;4.588;2022-07-23T10:49:32;37.20;67.40
26909;DHT22;14477;51.038;4.588;2022-07-23T10:52:17;37.30;68.00
26909;DHT22;14477;51.038;4.588;2022-07-23T10:54:45;37.40;63.60
26909;DHT22;14477;51.038;4.588;2022-07-23T10:57:13;37.50;70.10
26909;DHT22;14477;51.038;4.588;2022-07-23T11:00:11;37.60;70.20
26909;DHT22;14477;51.038;4.588;2022-07-23T11:02:39;37.60;63.70
26909;DHT22;14477;51.038;4.588;2022-07-23T11:05:07;37.70;69.10
26909;DHT22;14477;51.038;4.588;2022-07-23T11:07:34;37.70;66.80
26909;DHT22;14477;51.038;4.588;2022-07-23T11:10:00;37.70;66.90
26909;DHT22;14477;51.038;4.588;2022-07-23T11:15:12;37.90;64.20
26909;DHT22;14477;51.038;4.588;2022-07-23T11:20:19;38.10;60.00
26909;DHT22;14477;51.038;4.588;2022-07-23T11:27:46;38.50;64.30
26909;DHT22;14477;51.038;4.588;2022-07-23T11:33:15;38.70;58.60
26909;DHT22;14477;51.038;4.588;2022-07-23T11:35:48;38.90;63.40
26909;DHT22;14477;51.038;4.588;2022-07-23T11:38:18;39.10;58.30
26909;DHT22;14477;51.038;4.588;2022-07-23T11:40:46;39.30;60.70
26909;DHT22;14477;51.038;4.588;2022-07-23T11:43:13;39.30;61.80
26909;DHT22;14477;51.038;4.588;2022-07-23T11:45:42;39.40;60.80
26909;DHT22;14477;51.038;4.588;2022-07-23T11:48:15;39.50;60.00
26909;DHT22;14477;51.038;4.588;2022-07-23T11:50:41;39.50;60.00
26909;DHT22;14477;51.038;4.588;2022-07-23T11:53:07;39.60;60.80
26909;DHT22;14477;51.038;4.588;2022-07-23T11:55:32;39.60;61.10
26909;DHT22;14477;51.038;4.588;2022-07-23T11:57:58;39.70;60.70
26909;DHT22;14477;51.038;4.588;2022-07-23T12:00:27;39.90;59.80
26909;DHT22;14477;51.038;4.588;2022-07-23T12:02:57;39.90;57.30
26909;DHT22;14477;51.038;4.588;2022-07-23T12:05:31;40.00;57.40
26909;DHT22;14477;51.038;4.588;2022-07-23T12:07:58;40.10;55.60
26909;DHT22;14477;51.038;4.588;2022-07-23T12:10:30;40.10;58.40
26909;DHT22;14477;51.038;4.588;2022-07-23T12:13:01;40.20;57.20
26909;DHT22;14477;51.038;4.588;2022-07-23T12:15:33;40.20;56.90
26909;DHT22;14477;51.038;4.588;2022-07-23T12:18:02;40.20;54.80
26909;DHT22;14477;51.038;4.588;2022-07-23T12:20:31;40.10;54.20
26909;DHT22;14477;51.038;4.588;2022-07-23T12:23:00;40.10;55.60
26909;DHT22;14477;51.038;4.588;2022-07-23T12:25:29;40.10;55.50
26909;DHT22;14477;51.038;4.588;2022-07-23T12:30:41;40.10;51.50
26909;DHT22;14477;51.038;4.588;2022-07-23T12:33:09;40.00;53.10
26909;DHT22;14477;51.038;4.588;2022-07-23T12:35:38;39.90;54.30
26909;DHT22;14477;51.038;4.588;2022-07-23T12:38:17;39.90;53.60
26909;DHT22;14477;51.038;4.588;2022-07-23T12:40:51;39.90;53.70
26909;DHT22;14477;51.038;4.588;2022-07-23T12:43:29;39.80;52.20
26909;DHT22;14477;51.038;4.588;2022-07-23T12:45:56;39.80;52.20
26909;DHT22;14477;51.038;4.588;2022-07-23T12:48:28;39.80;54.30
26909;DHT22;14477;51.038;4.588;2022-07-23T12:51:00;39.80;51.40
26909;DHT22;14477;51.038;4.588;2022-07-23T12:56:07;39.90;53.20
26909;DHT22;14477;51.038;4.588;2022-07-23T12:58:49;39.80;51.10
26909;DHT22;14477;51.038;4.588;2022-07-23T13:01:26;39.90;49.00
26909;DHT22;14477;51.038;4.588;2022-07-23T13:04:19;39.80;49.60
26909;DHT22;14477;51.038;4.588;2022-07-23T13:09:17;39.70;51.90
26909;DHT22;14477;51.038;4.588;2022-07-23T13:11:45;39.70;52.30
26909;DHT22;14477;51.038;4.588;2022-07-23T13:14:12;39.70;52.40
26909;DHT22;14477;51.038;4.588;2022-07-23T13:16:39;39.70;52.30
26909;DHT22;14477;51.038;4.588;2022-07-23T13:19:05;39.70;52.00
26909;DHT22;14477;51.038;4.588;2022-07-23T13:21:31;39.70;51.40
26909;DHT22;14477;51.038;4.588;2022-07-23T13:23:57;39.70;51.30
26909;DHT22;14477;51.038;4.588;2022-07-23T13:26:23;39.80;51.10
26909;DHT22;14477;51.038;4.588;2022-07-23T13:28:49;39.80;50.20
26909;DHT22;14477;51.038;4.588;2022-07-23T13:31:16;39.70;49.70
26909;DHT22;14477;51.038;4.588;2022-07-23T13:33:42;39.60;49.60
26909;DHT22;14477;51.038;4.588;2022-07-23T13:36:07;39.60;49.40
26909;DHT22;14477;51.038;4.588;2022-07-23T13:38:33;39.40;49.00
26909;DHT22;14477;51.038;4.588;2022-07-23T13:40:59;39.30;48.60
26909;DHT22;14477;51.038;4.588;2022-07-23T13:43:25;39.30;48.70
26909;DHT22;14477;51.038;4.588;2022-07-23T13:45:52;39.30;48.40
26909;DHT22;14477;51.038;4.588;2022-07-23T13:48:19;39.20;48.70
26909;DHT22;14477;51.038;4.588;2022-07-23T13:50:46;39.20;48.50
26909;DHT22;14477;51.038;4.588;2022-07-23T13:53:16;39.10;47.50
26909;DHT22;14477;51.038;4.588;2022-07-23T13:55:42;39.00;47.00
26909;DHT22;14477;51.038;4.588;2022-07-23T13:58:09;38.70;47.00
26909;DHT22;14477;51.038;4.588;2022-07-23T14:00:37;38.40;46.40
26909;DHT22;14477;51.038;4.588;2022-07-23T14:03:03;38.20;46.00
26909;DHT22;14477;51.038;4.588;2022-07-23T14:05:29;37.80;46.70
26909;DHT22;14477;51.038;4.588;2022-07-23T14:07:55;37.60;46.80
26909;DHT22;14477;51.038;4.588;2022-07-23T14:10:22;37.40;46.90
26909;DHT22;14477;51.038;4.588;2022-07-23T14:12:50;37.10;47.00
26909;DHT22;14477;51.038;4.588;2022-07-23T14:15:17;36.90;47.30
26909;DHT22;14477;51.038;4.588;2022-07-23T14:17:45;36.70;47.20
26909;DHT22;14477;51.038;4.588;2022-07-23T14:20:12;36.40;46.60
26909;DHT22;14477;51.038;4.588;2022-07-23T14:22:38;36.20;47.20
26909;DHT22;14477;51.038;4.588;2022-07-23T14:25:05;36.00;47.90
26909;DHT22;14477;51.038;4.588;2022-07-23T14:27:31;35.90;48.20
26909;DHT22;14477;51.038;4.588;2022-07-23T14:29:57;35.80;48.80
26909;DHT22;14477;51.038;4.588;2022-07-23T14:32:24;35.80;49.50
26909;DHT22;14477;51.038;4.588;2022-07-23T14:34:50;35.80;49.80
26909;DHT22;14477;51.038;4.588;2022-07-23T14:37:16;35.90;49.80
26909;DHT22;14477;51.038;4.588;2022-07-23T14:39:42;36.00;49.70
26909;DHT22;14477;51.038;4.588;2022-07-23T14:42:09;36.10;49.60
26909;DHT22;14477;51.038;4.588;2022-07-23T14:44:35;36.10;49.40
26909;DHT22;14477;51.038;4.588;2022-07-23T14:47:02;36.10;49.40
26909;DHT22;14477;51.038;4.588;2022-07-23T14:49:30;36.20;50.30
26909;DHT22;14477;51.038;4.588;2022-07-23T14:51:55;36.30;49.10
26909;DHT22;14477;51.038;4.588;2022-07-23T14:54:21;36.30;49.60
26909;DHT22;14477;51.038;4.588;2022-07-23T14:56:47;36.20;48.60
26909;DHT22;14477;51.038;4.588;2022-07-23T14:59:13;36.20;48.80
26909;DHT22;14477;51.038;4.588;2022-07-23T15:01:39;36.10;48.60
26909;DHT22;14477;51.038;4.588;2022-07-23T15:04:05;36.00;48.80
26909;DHT22;14477;51.038;4.588;2022-07-23T15:06:32;36.00;48.60
26909;DHT22;14477;51.038;4.588;2022-07-23T15:08:57;35.90;48.50
26909;DHT22;14477;51.038;4.588;2022-07-23T15:11:23;35.90;48.60
26909;DHT22;14477;51.038;4.588;2022-07-23T15:13:49;35.80;48.10
26909;DHT22;14477;51.038;4.588;2022-07-23T15:16:14;35.80;47.80
26909;DHT22;14477;51.038;4.588;2022-07-23T15:18:40;35.70;48.20
26909;DHT22;14477;51.038;4.588;2022-07-23T15:21:06;35.60;48.50
26909;DHT22;14477;51.038;4.588;2022-07-23T15:23:32;35.60;48.50
26909;DHT22;14477;51.038;4.588;2022-07-23T15:25:58;35.60;48.30
26909;DHT22;14477;51.038;4.588;2022-07-23T15:28:23;35.60;48.20
26909;DHT22;14477;51.038;4.588;2022-07-23T15:30:50;35.50;48.10
26909;DHT22;14477;51.038;4.588;2022-07-23T15:33:17;35.30;48.00
26909;DHT22;14477;51.038;4.588;2022-07-23T15:35:43;35.30;48.20
26909;DHT22;14477;51.038;4.588;2022-07-23T15:38:09;35.20;48.30
26909;DHT22;14477;51.038;4.588;2022-07-23T15:40:34;35.10;48.20
26909;DHT22;14477;51.038;4.588;2022-07-23T15:43:00;35.10;48.20
26909;DHT22;14477;51.038;4.588;2022-07-23T15:45:26;35.10;48.40
26909;DHT22;14477;51.038;4.588;2022-07-23T15:47:52;35.00;48.40
26909;DHT22;14477;51.038;4.588;2022-07-23T15:50:17;35.00;48.40
26909;DHT22;14477;51.038;4.588;2022-07-23T15:52:43;34.90;48.10
26909;DHT22;14477;51.038;4.588;2022-07-23T15:55:09;34.80;47.80
26909;DHT22;14477;51.038;4.588;2022-07-23T15:57:35;34.60;48.00
26909;DHT22;14477;51.038;4.588;2022-07-23T16:00:01;34.50;48.20
26909;DHT22;14477;51.038;4.588;2022-07-23T16:02:27;34.30;48.80
26909;DHT22;14477;51.038;4.588;2022-07-23T16:04:53;34.10;47.90
26909;DHT22;14477;51.038;4.588;2022-07-23T16:07:20;34.00;48.00
26909;DHT22;14477;51.038;4.588;2022-07-23T16:09:45;33.80;48.00
26909;DHT22;14477;51.038;4.588;2022-07-23T16:12:11;33.70;48.30